createdAt,value
2023-04-09T00:00:48.550Z,27.00
2023-04-09T00:03:35.009Z,27.50
2023-04-09T00:06:04.463Z,29.10
2023-04-09T00:08:32.661Z,25.90
2023-04-09T00:11:01.226Z,25.30
2023-04-09T00:13:38.660Z,22.60
2023-04-09T00:16:09.106Z,20.30
2023-04-09T00:18:37.613Z,19.70
2023-04-09T00:21:07.201Z,21.00
2023-04-09T00:23:36.077Z,19.50
2023-04-09T00:26:04.398Z,18.70
2023-04-09T00:28:32.750Z,18.70
2023-04-09T00:31:01.191Z,19.20
2023-04-09T00:33:29.364Z,19.00
2023-04-09T00:35:57.776Z,17.90
2023-04-09T00:38:26.113Z,19.30
2023-04-09T00:40:54.384Z,18.10
2023-04-09T00:43:23.271Z,18.30
2023-04-09T00:45:51.887Z,18.30
2023-04-09T00:48:21.490Z,18.40
2023-04-09T00:50:50.044Z,21.40
2023-04-09T00:53:18.722Z,18.50
2023-04-09T00:55:47.045Z,18.90
2023-04-09T00:58:16.003Z,19.40
2023-04-09T01:00:44.477Z,18.30
2023-04-09T01:03:13.218Z,18.60
2023-04-09T01:05:49.750Z,19.30
2023-04-09T01:08:26.917Z,18.50
2023-04-09T01:11:21.350Z,17.80
2023-04-09T01:14:06.232Z,18.70
2023-04-09T01:16:37.210Z,19.70
2023-04-09T01:19:17.593Z,19.80
2023-04-09T01:21:46.561Z,23.90
2023-04-09T01:24:51.958Z,21.00
2023-04-09T01:27:39.810Z,18.90
2023-04-09T01:30:09.642Z,22.70
2023-04-09T01:32:39.508Z,21.30
2023-04-09T01:35:10.089Z,21.10
2023-04-09T01:37:40.173Z,22.30
2023-04-09T01:40:08.936Z,23.70
2023-04-09T01:42:38.162Z,22.10
2023-04-09T01:45:07.824Z,23.10
2023-04-09T01:47:36.616Z,20.60
2023-04-09T01:50:05.440Z,20.30
2023-04-09T01:52:34.046Z,20.10
2023-04-09T01:55:02.334Z,18.30
2023-04-09T01:57:31.297Z,18.90
2023-04-09T01:59:59.718Z,18.70
2023-04-09T02:02:56.149Z,18.80
2023-04-09T02:05:29.224Z,17.70
2023-04-09T02:08:01.842Z,19.70
2023-04-09T02:10:33.421Z,27.80
2023-04-09T02:13:02.255Z,18.40
2023-04-09T02:15:32.549Z,17.30
2023-04-09T02:18:00.666Z,17.20
2023-04-09T02:20:28.876Z,18.90
2023-04-09T02:22:57.930Z,17.00
2023-04-09T02:25:27.194Z,19.40
2023-04-09T02:27:55.546Z,20.20
2023-04-09T02:30:23.973Z,19.30
2023-04-09T02:40:28.755Z,18.10
2023-04-09T02:42:57.866Z,18.80
2023-04-09T02:45:26.241Z,22.60
2023-04-09T02:47:54.836Z,28.00
2023-04-09T02:50:23.301Z,34.50
2023-04-09T02:52:52.993Z,29.30
2023-04-09T02:55:21.643Z,26.20
2023-04-09T02:57:49.777Z,21.70
2023-04-09T03:00:18.091Z,24.00
2023-04-09T03:02:46.656Z,25.90
2023-04-09T03:05:15.026Z,22.20
2023-04-09T03:07:43.522Z,21.70
2023-04-09T03:10:11.781Z,24.10
2023-04-09T03:12:40.168Z,22.80
2023-04-09T03:15:08.979Z,23.60
2023-04-09T03:17:37.370Z,26.50
2023-04-09T03:20:07.603Z,25.00
2023-04-09T03:22:38.935Z,25.80
2023-04-09T03:25:17.143Z,22.80
2023-04-09T03:27:45.690Z,23.90
2023-04-09T03:30:14.087Z,21.90
2023-04-09T03:32:45.041Z,18.30
2023-04-09T03:35:14.263Z,16.40
2023-04-09T03:37:43.224Z,14.80
2023-04-09T03:40:16.442Z,16.10
2023-04-09T03:42:44.813Z,15.50
2023-04-09T03:45:14.715Z,14.00
2023-04-09T03:47:45.999Z,13.60
2023-04-09T03:50:14.364Z,12.60
2023-04-09T03:52:51.835Z,13.00
2023-04-09T03:55:20.581Z,12.90
2023-04-09T03:57:49.412Z,14.40
2023-04-09T04:00:19.176Z,13.90
2023-04-09T04:03:08.069Z,13.20
2023-04-09T04:05:51.843Z,13.60
2023-04-09T04:08:20.508Z,12.40
2023-04-09T04:10:49.134Z,13.50
2023-04-09T04:13:17.824Z,13.20
2023-04-09T04:15:51.808Z,13.90
2023-04-09T04:18:23.581Z,14.70
2023-04-09T04:20:54.297Z,15.10
2023-04-09T04:23:23.001Z,15.30
2023-04-09T04:25:57.303Z,17.30
2023-04-09T04:28:30.312Z,22.90
2023-04-09T04:30:59.081Z,22.50
2023-04-09T04:33:28.244Z,18.20
2023-04-09T04:36:06.600Z,18.10
2023-04-09T04:38:42.288Z,17.60
2023-04-09T04:41:16.915Z,20.00
2023-04-09T04:43:49.954Z,23.70
2023-04-09T04:46:21.888Z,30.50
2023-04-09T04:48:50.195Z,28.60
2023-04-09T04:51:19.313Z,41.30
2023-04-09T04:53:58.334Z,70.70
2023-04-09T04:56:27.035Z,81.80
2023-04-09T04:59:04.149Z,63.60
2023-04-09T05:01:39.980Z,43.50
2023-04-09T05:04:10.575Z,40.80
2023-04-09T05:06:39.511Z,46.50
2023-04-09T05:09:10.640Z,38.30
2023-04-09T05:11:47.514Z,31.90
2023-04-09T05:14:21.514Z,23.40
2023-04-09T05:16:50.031Z,19.30
2023-04-09T05:19:20.214Z,17.40
2023-04-09T05:21:48.713Z,24.30
2023-04-09T05:24:21.921Z,22.10
2023-04-09T05:26:50.391Z,21.50
2023-04-09T05:29:18.994Z,23.90
2023-04-09T05:31:47.255Z,19.90
2023-04-09T05:34:41.686Z,29.50
2023-04-09T05:37:09.932Z,32.50
2023-04-09T05:39:38.340Z,16.70
2023-04-09T05:42:06.733Z,16.60
2023-04-09T05:44:39.777Z,22.10
2023-04-09T05:47:15.429Z,18.60
2023-04-09T05:49:49.266Z,19.60
2023-04-09T05:52:17.841Z,16.60
2023-04-09T05:54:46.412Z,22.50
2023-04-09T05:57:16.662Z,23.90
2023-04-09T05:59:47.984Z,24.60
2023-04-09T06:02:16.812Z,17.60
2023-04-09T06:04:45.717Z,30.20
2023-04-09T06:07:15.886Z,19.40
2023-04-09T06:09:44.498Z,19.10
2023-04-09T06:12:13.674Z,15.30
2023-04-09T06:14:42.949Z,15.30
2023-04-09T06:17:11.267Z,15.50
2023-04-09T06:19:40.247Z,30.50
2023-04-09T06:22:11.706Z,18.90
2023-04-09T06:24:39.719Z,12.00
2023-04-09T06:27:08.079Z,14.60
2023-04-09T06:29:36.250Z,11.60
2023-04-09T06:32:05.835Z,12.00
2023-04-09T06:34:33.973Z,11.20
2023-04-09T06:37:02.332Z,9.30
2023-04-09T06:39:31.080Z,9.60
2023-04-09T06:41:59.577Z,12.50
2023-04-09T06:44:52.494Z,11.90
2023-04-09T06:47:20.913Z,12.80
2023-04-09T06:49:48.973Z,12.50
2023-04-09T06:52:17.277Z,11.60
2023-04-09T06:54:46.261Z,12.10
2023-04-09T06:57:14.426Z,15.30
2023-04-09T06:59:42.446Z,14.00
2023-04-09T07:02:11.033Z,11.80
2023-04-09T07:04:39.597Z,12.20
2023-04-09T07:07:07.954Z,12.70
2023-04-09T07:09:36.680Z,11.40
2023-04-09T07:12:05.222Z,11.20
2023-04-09T07:14:33.378Z,10.40
2023-04-09T07:17:01.519Z,10.50
2023-04-09T07:19:29.863Z,11.20
2023-04-09T07:21:58.185Z,11.20
2023-04-09T07:24:26.209Z,11.00
2023-04-09T07:26:54.798Z,11.30
2023-04-09T07:29:22.973Z,10.10
2023-04-09T07:31:51.396Z,12.30
2023-04-09T07:34:19.762Z,11.40
2023-04-09T07:36:48.819Z,11.80
2023-04-09T07:39:17.607Z,8.90
2023-04-09T07:41:45.730Z,8.70
2023-04-09T07:44:14.373Z,9.60
2023-04-09T07:46:44.205Z,10.70
2023-04-09T07:49:12.372Z,9.60
2023-04-09T07:51:40.944Z,9.70
2023-04-09T07:54:09.262Z,11.30
2023-04-09T07:56:37.615Z,10.70
2023-04-09T07:59:06.018Z,10.40
2023-04-09T08:01:34.341Z,10.70
2023-04-09T08:04:02.767Z,11.20
2023-04-09T08:06:31.347Z,10.60
2023-04-09T08:08:59.610Z,9.70
2023-04-09T08:11:27.917Z,10.00
2023-04-09T08:13:57.394Z,9.90
2023-04-09T08:16:25.535Z,8.80
2023-04-09T08:18:54.694Z,10.10
2023-04-09T08:21:23.768Z,9.80
2023-04-09T08:23:51.898Z,9.90
2023-04-09T08:26:20.115Z,9.60
2023-04-09T08:28:49.191Z,10.30
2023-04-09T08:31:17.547Z,9.60
2023-04-09T08:33:46.286Z,10.20
2023-04-09T08:36:14.729Z,9.70
2023-04-09T08:38:45.299Z,8.70
2023-04-09T08:41:20.945Z,28.80
2023-04-09T08:43:57.596Z,10.70
2023-04-09T08:46:28.158Z,10.50
2023-04-09T08:48:57.349Z,9.10
2023-04-09T08:51:26.036Z,9.10
2023-04-09T08:54:04.343Z,8.70
2023-04-09T08:56:33.356Z,8.70
2023-04-09T08:59:01.826Z,8.40
2023-04-09T09:01:31.704Z,9.30
2023-04-09T09:04:01.257Z,10.50
2023-04-09T09:06:33.459Z,11.80
2023-04-09T09:09:10.348Z,10.50
2023-04-09T09:11:39.332Z,7.90
2023-04-09T09:14:13.223Z,6.90
2023-04-09T09:16:44.156Z,6.60
2023-04-09T09:19:37.413Z,7.90
2023-04-09T09:22:12.772Z,8.30
2023-04-09T09:24:52.343Z,10.10
2023-04-09T09:27:39.769Z,7.50
2023-04-09T09:30:10.723Z,6.90
2023-04-09T09:32:39.413Z,7.90
2023-04-09T09:35:08.242Z,12.80
2023-04-09T09:37:36.457Z,14.40
2023-04-09T09:40:05.230Z,6.70
2023-04-09T09:42:33.496Z,6.60
2023-04-09T09:45:03.630Z,6.00
2023-04-09T09:47:32.446Z,9.30
2023-04-09T09:50:00.787Z,6.90
2023-04-09T09:52:30.446Z,6.90
2023-04-09T09:55:05.423Z,7.00
2023-04-09T09:57:39.491Z,8.70
2023-04-09T10:00:08.904Z,19.30
2023-04-09T10:02:48.310Z,11.00
2023-04-09T10:05:16.982Z,8.00
2023-04-09T10:07:46.825Z,7.80
2023-04-09T10:10:16.614Z,7.10
2023-04-09T10:12:45.699Z,8.20
2023-04-09T10:15:14.310Z,9.50
2023-04-09T10:17:42.391Z,6.20
2023-04-09T10:20:19.583Z,8.90
2023-04-09T10:22:51.912Z,8.70
2023-04-09T10:25:20.937Z,6.30
2023-04-09T10:28:03.452Z,6.10
2023-04-09T10:30:36.104Z,6.40
2023-04-09T10:33:15.123Z,6.80
2023-04-09T10:35:47.938Z,6.30
2023-04-09T10:38:16.507Z,7.00
2023-04-09T10:40:52.087Z,7.10
2023-04-09T10:43:22.346Z,6.00
2023-04-09T10:45:54.606Z,6.40
2023-04-09T10:48:26.140Z,6.10
2023-04-09T10:50:54.344Z,6.40
2023-04-09T10:53:24.084Z,6.60
2023-04-09T10:55:53.959Z,5.70
2023-04-09T10:58:22.042Z,6.30
2023-04-09T11:00:51.695Z,6.70
2023-04-09T11:03:24.270Z,7.80
2023-04-09T11:06:10.365Z,7.60
2023-04-09T11:08:39.207Z,6.80
2023-04-09T11:11:07.397Z,5.80
2023-04-09T11:13:36.139Z,6.80
2023-04-09T11:16:07.302Z,9.80
2023-04-09T11:18:37.322Z,6.90
2023-04-09T11:21:06.082Z,8.70
2023-04-09T11:23:35.073Z,10.80
2023-04-09T11:26:03.457Z,6.60
2023-04-09T11:28:45.792Z,6.60
2023-04-09T11:33:47.373Z,7.70
2023-04-09T11:36:16.608Z,7.20
2023-04-09T11:38:49.739Z,6.70
2023-04-09T11:41:18.016Z,10.40
2023-04-09T11:43:46.201Z,11.40
2023-04-09T11:46:15.033Z,9.10
2023-04-09T11:48:43.559Z,7.00
2023-04-09T11:51:11.699Z,6.20
2023-04-09T11:53:40.942Z,7.20
2023-04-09T11:56:09.105Z,7.10
2023-04-09T11:58:37.928Z,7.20
2023-04-09T12:01:06.183Z,6.00
2023-04-09T12:03:34.679Z,6.20
2023-04-09T12:06:05.655Z,6.00
2023-04-09T12:08:37.704Z,8.00
2023-04-09T12:11:13.508Z,6.10
2023-04-09T12:13:45.174Z,5.90
2023-04-09T12:16:14.277Z,6.60
2023-04-09T12:18:42.666Z,7.10
2023-04-09T12:21:10.961Z,7.70
2023-04-09T12:23:39.014Z,7.50
2023-04-09T12:26:07.253Z,8.80
2023-04-09T12:28:35.674Z,8.40
2023-04-09T12:31:04.055Z,7.10
2023-04-09T12:33:32.577Z,7.70
2023-04-09T12:36:00.774Z,6.90
2023-04-09T12:38:29.017Z,8.30
2023-04-09T12:40:57.272Z,6.70
2023-04-09T12:43:25.513Z,8.30
2023-04-09T12:45:53.778Z,8.60
2023-04-09T12:48:22.080Z,9.00
2023-04-09T12:50:50.814Z,8.90
2023-04-09T12:53:18.994Z,9.90
2023-04-09T12:55:47.342Z,9.40
2023-04-09T12:58:15.830Z,10.00
2023-04-09T13:00:44.717Z,10.00
2023-04-09T13:03:13.513Z,9.10
2023-04-09T13:05:42.100Z,9.10
2023-04-09T13:08:10.587Z,9.30
2023-04-09T13:10:39.207Z,12.60
2023-04-09T13:13:12.192Z,14.00
2023-04-09T13:15:45.167Z,9.60
2023-04-09T13:18:13.804Z,9.50
2023-04-09T13:20:42.013Z,8.90
2023-04-09T13:23:10.423Z,9.10
2023-04-09T13:25:38.579Z,9.20
2023-04-09T13:28:07.758Z,8.70
2023-04-09T13:30:36.110Z,8.80
2023-04-09T13:33:04.425Z,7.60
2023-04-09T13:35:32.754Z,6.80
2023-04-09T13:38:01.284Z,7.60
2023-04-09T13:40:29.561Z,8.30
2023-04-09T13:42:57.845Z,9.60
2023-04-09T13:45:26.331Z,27.60
2023-04-09T13:47:54.796Z,7.90
2023-04-09T13:50:23.388Z,8.30
2023-04-09T13:52:51.885Z,8.90
2023-04-09T13:55:20.259Z,7.50
2023-04-09T13:57:48.538Z,6.80
2023-04-09T14:00:17.366Z,7.50
2023-04-09T14:02:46.719Z,8.10
2023-04-09T14:05:14.965Z,9.90
2023-04-09T14:07:43.183Z,18.70
2023-04-09T14:10:11.547Z,16.80
2023-04-09T14:12:39.760Z,10.40
2023-04-09T14:15:08.832Z,10.60
2023-04-09T14:17:37.141Z,14.10
2023-04-09T14:20:06.135Z,11.00
2023-04-09T14:22:34.484Z,9.40
2023-04-09T14:25:03.232Z,12.10
2023-04-09T14:27:31.458Z,11.30
2023-04-09T14:29:59.699Z,10.50
2023-04-09T14:32:27.950Z,10.20
2023-04-09T14:34:56.183Z,8.80
2023-04-09T14:37:24.430Z,9.00
2023-04-09T14:39:52.635Z,10.40
2023-04-09T14:42:21.159Z,10.40
2023-04-09T14:44:49.395Z,11.00
2023-04-09T14:47:17.612Z,10.70
2023-04-09T14:49:46.097Z,9.50
2023-04-09T14:52:14.333Z,9.70
2023-04-09T14:54:42.652Z,10.20
2023-04-09T14:57:11.131Z,11.40
2023-04-09T14:59:39.499Z,11.10
2023-04-09T15:02:07.791Z,9.90
2023-04-09T15:04:36.515Z,11.00
2023-04-09T15:07:06.571Z,11.20
2023-04-09T15:09:34.748Z,10.60
2023-04-09T15:12:03.659Z,11.20
2023-04-09T15:14:31.930Z,11.30
2023-04-09T15:17:00.398Z,10.70
2023-04-09T15:19:28.617Z,9.70
2023-04-09T15:21:56.771Z,9.80
2023-04-09T15:24:25.438Z,12.10
2023-04-09T15:26:53.822Z,9.90
2023-04-09T15:29:22.091Z,13.80
2023-04-09T15:31:53.386Z,12.60
2023-04-09T15:34:21.617Z,12.40
2023-04-09T15:36:49.810Z,13.00
2023-04-09T15:39:18.910Z,21.10
2023-04-09T15:41:47.066Z,19.20
2023-04-09T15:44:15.798Z,11.70
2023-04-09T15:46:44.236Z,10.70
2023-04-09T15:49:12.399Z,11.70
2023-04-09T15:51:40.827Z,15.10
2023-04-09T15:54:09.184Z,13.60
2023-04-09T15:56:39.910Z,13.20
2023-04-09T15:59:08.691Z,14.80
2023-04-09T16:01:37.377Z,16.00
2023-04-09T16:04:05.934Z,14.70
2023-04-09T16:06:34.249Z,13.30
2023-04-09T16:09:02.600Z,12.00
2023-04-09T16:11:30.826Z,9.90
2023-04-09T16:13:59.090Z,8.60
2023-04-09T16:16:27.739Z,9.10
2023-04-09T16:18:56.368Z,9.20
2023-04-09T16:21:24.748Z,9.40
2023-04-09T16:23:52.856Z,8.90
2023-04-09T16:26:21.402Z,8.80
2023-04-09T16:28:49.800Z,9.30
2023-04-09T16:31:18.199Z,9.80
2023-04-09T16:33:46.949Z,9.80
2023-04-09T16:36:15.678Z,9.90
2023-04-09T16:38:44.016Z,9.20
2023-04-09T16:41:12.210Z,9.10
2023-04-09T16:43:40.473Z,9.10
2023-04-09T16:46:08.985Z,9.70
2023-04-09T16:48:41.820Z,9.60
2023-04-09T16:51:10.521Z,9.40
2023-04-09T16:53:40.185Z,11.60
2023-04-09T16:56:09.045Z,11.70
2023-04-09T16:58:37.926Z,15.00
2023-04-09T17:01:06.624Z,10.80
2023-04-09T17:03:34.990Z,10.40
2023-04-09T17:06:05.029Z,9.80
2023-04-09T17:08:35.555Z,9.80
2023-04-09T17:11:03.794Z,9.70
2023-04-09T17:13:35.299Z,10.40
2023-04-09T17:16:04.030Z,10.10
2023-04-09T17:18:32.744Z,8.90
2023-04-09T17:21:01.064Z,9.80
2023-04-09T17:23:29.403Z,9.60
2023-04-09T17:25:59.979Z,9.70
2023-04-09T17:28:28.132Z,9.00
2023-04-09T17:30:56.400Z,9.10
2023-04-09T17:33:24.794Z,9.10
2023-04-09T17:35:53.272Z,10.30
2023-04-09T17:38:21.769Z,12.20
2023-04-09T17:40:50.749Z,29.90
2023-04-09T17:43:18.829Z,34.70
2023-04-09T17:45:47.081Z,77.20
2023-04-09T17:48:15.765Z,76.80
2023-04-09T17:50:44.150Z,77.40
2023-04-09T17:53:12.960Z,54.90
2023-04-09T17:55:47.285Z,57.00
2023-04-09T17:58:15.689Z,61.60
2023-04-09T18:00:44.453Z,46.90
2023-04-09T18:03:13.324Z,39.10
2023-04-09T18:05:42.074Z,30.70
2023-04-09T18:08:10.493Z,49.00
2023-04-09T18:10:38.874Z,46.90
2023-04-09T18:13:07.066Z,43.40
2023-04-09T18:15:35.244Z,30.90
2023-04-09T18:18:06.069Z,28.80
2023-04-09T18:20:34.449Z,27.90
2023-04-09T18:23:02.654Z,29.70
2023-04-09T18:25:30.801Z,27.00
2023-04-09T18:27:59.047Z,24.10
2023-04-09T18:30:27.450Z,19.70
2023-04-09T18:32:55.687Z,18.80
2023-04-09T18:35:24.143Z,18.60
2023-04-09T18:37:52.797Z,19.40
2023-04-09T18:40:21.286Z,19.70
2023-04-09T18:42:52.860Z,25.60
2023-04-09T18:45:21.222Z,31.10
2023-04-09T18:47:49.393Z,26.10
2023-04-09T18:50:20.010Z,28.90
2023-04-09T18:52:48.305Z,29.10
2023-04-09T18:55:18.222Z,25.50
2023-04-09T18:57:47.450Z,22.50
2023-04-09T19:00:16.556Z,21.60
2023-04-09T19:02:45.257Z,18.40
2023-04-09T19:05:14.406Z,18.70
2023-04-09T19:07:43.565Z,17.30
2023-04-09T19:10:15.994Z,19.20
2023-04-09T19:12:50.924Z,19.70
2023-04-09T19:15:19.711Z,19.10
2023-04-09T19:17:50.825Z,19.10
2023-04-09T19:20:19.662Z,17.90
2023-04-09T19:22:53.463Z,18.30
2023-04-09T19:25:22.967Z,19.00
2023-04-09T19:27:53.732Z,19.50
2023-04-09T19:30:22.017Z,22.10
2023-04-09T19:32:50.576Z,21.40
2023-04-09T19:35:19.079Z,19.50
2023-04-09T19:37:47.415Z,18.50
2023-04-09T19:40:17.965Z,22.00
2023-04-09T19:42:49.401Z,16.90
2023-04-09T19:45:17.898Z,17.50
2023-04-09T19:47:46.599Z,18.80
2023-04-09T19:50:14.927Z,18.70
2023-04-09T19:52:43.562Z,17.70
2023-04-09T19:55:11.923Z,20.40
2023-04-09T19:57:41.045Z,21.10
2023-04-09T20:00:10.115Z,21.50
2023-04-09T20:02:41.777Z,18.10
2023-04-09T20:05:10.708Z,18.20
2023-04-09T20:07:39.141Z,16.70
2023-04-09T20:10:08.555Z,15.20
2023-04-09T20:12:37.033Z,15.10
2023-04-09T20:15:07.986Z,14.90
2023-04-09T20:17:37.627Z,13.90
2023-04-09T20:20:06.584Z,14.40
2023-04-09T20:22:34.920Z,14.00
2023-04-09T20:25:03.083Z,13.50
2023-04-09T20:27:31.617Z,14.10
2023-04-09T20:29:59.916Z,15.90
2023-04-09T20:32:28.406Z,15.00
2023-04-09T20:34:56.829Z,15.30
2023-04-09T20:37:25.271Z,16.00
2023-04-09T20:39:53.625Z,21.40
2023-04-09T20:42:22.023Z,22.00
2023-04-09T20:44:50.282Z,16.50
2023-04-09T20:47:18.491Z,20.00
2023-04-09T20:49:47.555Z,20.00
2023-04-09T20:52:15.734Z,17.30
2023-04-09T20:54:43.832Z,15.50
2023-04-09T20:57:13.822Z,16.00
2023-04-09T20:59:42.442Z,15.50
2023-04-09T21:02:12.927Z,15.30
2023-04-09T21:04:41.622Z,14.90
2023-04-09T21:07:09.820Z,15.50
2023-04-09T21:09:38.489Z,14.20
2023-04-09T21:12:06.858Z,13.80
2023-04-09T21:14:35.047Z,15.50
2023-04-09T21:17:03.541Z,14.40
2023-04-09T21:19:32.222Z,12.60
2023-04-09T21:22:00.411Z,13.90
2023-04-09T21:24:28.459Z,13.60
2023-04-09T21:26:58.939Z,14.10
2023-04-09T21:29:28.374Z,14.80
2023-04-09T21:31:56.812Z,15.60
2023-04-09T21:34:25.061Z,14.40
2023-04-09T21:36:54.135Z,12.20
2023-04-09T21:39:22.265Z,14.00
2023-04-09T21:41:50.640Z,13.90
2023-04-09T21:44:18.999Z,11.80
2023-04-09T21:46:47.995Z,13.10
2023-04-09T21:49:16.683Z,12.70
2023-04-09T21:51:47.658Z,12.50
2023-04-09T21:54:15.795Z,12.40
2023-04-09T21:56:44.003Z,12.50
2023-04-09T21:59:12.148Z,12.40
2023-04-09T22:01:40.727Z,14.40
2023-04-09T22:04:09.507Z,13.80
2023-04-09T22:06:37.916Z,14.20
2023-04-09T22:09:06.313Z,14.50
2023-04-09T22:11:34.671Z,14.70
2023-04-09T22:14:02.845Z,15.90
2023-04-09T22:16:31.116Z,19.20
2023-04-09T22:18:59.509Z,15.10
2023-04-09T22:21:28.114Z,14.90
2023-04-09T22:23:56.369Z,13.90
2023-04-09T22:26:24.542Z,13.30
2023-04-09T22:28:53.203Z,15.40
2023-04-09T22:31:22.146Z,15.00
2023-04-09T22:33:52.913Z,13.50
2023-04-09T22:36:21.724Z,13.90
2023-04-09T22:38:49.926Z,12.50
2023-04-09T22:41:18.131Z,12.30
2023-04-09T22:43:46.262Z,12.40
2023-04-09T22:46:14.683Z,12.00
2023-04-09T22:48:55.555Z,13.50
2023-04-09T22:51:24.828Z,12.90
2023-04-09T22:53:53.105Z,13.00
2023-04-09T22:56:22.418Z,12.00
2023-04-09T22:58:51.097Z,11.40
2023-04-09T23:01:22.306Z,11.90
2023-04-09T23:03:51.086Z,11.70
2023-04-09T23:06:19.218Z,11.60
2023-04-09T23:08:47.612Z,11.90
2023-04-09T23:11:15.965Z,12.40
2023-04-09T23:13:44.180Z,11.00
2023-04-09T23:16:14.527Z,12.10
2023-04-09T23:18:42.870Z,11.40
2023-04-09T23:21:11.979Z,11.00
2023-04-09T23:23:40.434Z,11.40
2023-04-09T23:26:08.766Z,11.80
2023-04-09T23:28:37.087Z,11.50
2023-04-09T23:31:06.194Z,10.40
2023-04-09T23:33:34.686Z,11.30
2023-04-09T23:36:03.230Z,11.70
2023-04-09T23:38:31.677Z,12.20
2023-04-09T23:40:59.908Z,11.90
2023-04-09T23:43:28.169Z,11.30
2023-04-09T23:45:56.490Z,12.90
2023-04-09T23:48:24.658Z,11.90
2023-04-09T23:50:52.920Z,11.80
2023-04-09T23:53:21.514Z,10.90
2023-04-09T23:55:51.345Z,10.30
2023-04-09T23:58:20.110Z,11.10
